createdAt,value
2023-02-26T00:02:02.422Z,48.93
2023-02-26T00:04:31.065Z,48.60
2023-02-26T00:06:59.625Z,48.76
2023-02-26T00:09:28.964Z,48.90
2023-02-26T00:11:59.698Z,48.58
2023-02-26T00:14:29.831Z,49.13
2023-02-26T00:17:24.694Z,48.88
2023-02-26T00:19:53.950Z,48.64
2023-02-26T00:22:23.518Z,48.79
2023-02-26T00:24:52.063Z,48.63
2023-02-26T00:27:21.994Z,48.74
2023-02-26T00:29:51.441Z,49.15
2023-02-26T00:32:20.780Z,48.84
2023-02-26T00:34:50.505Z,48.98
2023-02-26T00:37:31.420Z,48.98
2023-02-26T00:40:14.818Z,48.97
2023-02-26T00:42:45.372Z,48.92
2023-02-26T00:45:15.700Z,48.89
2023-02-26T00:47:50.868Z,49.01
2023-02-26T00:50:22.664Z,49.02
2023-02-26T00:53:03.692Z,49.01
2023-02-26T00:55:32.500Z,49.00
2023-02-26T00:58:02.079Z,49.16
2023-02-26T01:00:30.369Z,49.62
2023-02-26T01:02:59.411Z,49.41
2023-02-26T01:05:28.872Z,49.50
2023-02-26T01:08:05.012Z,49.61
2023-02-26T01:10:34.479Z,49.51
2023-02-26T01:13:05.211Z,49.46
2023-02-26T01:15:34.576Z,49.56
2023-02-26T01:18:10.788Z,49.48
2023-02-26T01:20:46.393Z,49.54
2023-02-26T01:23:19.628Z,49.03
2023-02-26T01:25:54.802Z,49.20
2023-02-26T01:28:25.866Z,49.33
2023-02-26T01:31:00.725Z,49.25
2023-02-26T01:33:35.562Z,48.88
2023-02-26T01:36:10.110Z,49.04
2023-02-26T01:38:45.123Z,49.21
2023-02-26T01:41:30.493Z,48.71
2023-02-26T01:44:11.832Z,48.98
2023-02-26T01:46:55.633Z,48.87
2023-02-26T01:49:24.774Z,48.75
2023-02-26T01:51:55.393Z,48.74
2023-02-26T01:54:27.209Z,49.00
2023-02-26T01:57:01.540Z,48.90
2023-02-26T01:59:31.437Z,48.90
2023-02-26T02:02:01.213Z,48.57
2023-02-26T02:04:29.612Z,48.46
2023-02-26T02:06:57.914Z,48.39
2023-02-26T02:09:26.203Z,48.42
2023-02-26T02:12:25.196Z,48.75
2023-02-26T02:15:09.010Z,48.71
2023-02-26T02:17:49.949Z,48.45
2023-02-26T02:20:59.105Z,48.76
2023-02-26T02:23:35.318Z,48.68
2023-02-26T02:26:28.428Z,48.56
2023-02-26T02:29:34.612Z,48.68
2023-02-26T02:32:09.992Z,48.31
2023-02-26T02:34:43.248Z,48.33
2023-02-26T02:37:18.401Z,48.42
2023-02-26T02:39:53.121Z,48.41
2023-02-26T02:42:28.031Z,48.98
2023-02-26T02:45:00.678Z,48.66
2023-02-26T02:47:34.308Z,48.43
2023-02-26T02:50:10.994Z,48.59
2023-02-26T02:52:47.103Z,48.58
2023-02-26T02:55:19.968Z,48.39
2023-02-26T02:57:53.088Z,48.23
2023-02-26T03:00:23.776Z,48.53
2023-02-26T03:03:02.353Z,48.62
2023-02-26T03:05:30.868Z,48.59
2023-02-26T03:08:05.000Z,48.33
2023-02-26T03:10:33.736Z,48.48
2023-02-26T03:13:01.995Z,48.49
2023-02-26T03:15:39.109Z,48.26
2023-02-26T03:18:22.604Z,48.66
2023-02-26T03:20:59.575Z,48.54
2023-02-26T03:23:35.564Z,48.72
2023-02-26T03:26:13.110Z,48.60
2023-02-26T03:28:47.820Z,48.45
2023-02-26T03:31:23.456Z,48.51
2023-02-26T03:34:00.377Z,48.50
2023-02-26T03:36:34.921Z,48.67
2023-02-26T03:39:09.323Z,48.58
2023-02-26T03:41:43.570Z,48.86
2023-02-26T03:44:20.749Z,48.65
2023-02-26T03:46:56.484Z,48.94
2023-02-26T03:49:30.808Z,48.71
2023-02-26T03:52:01.231Z,48.82
2023-02-26T03:54:34.180Z,48.62
2023-02-26T03:57:02.654Z,48.83
2023-02-26T03:59:30.960Z,49.00
2023-02-26T04:02:03.950Z,48.88
2023-02-26T04:04:42.582Z,48.65
2023-02-26T04:07:11.936Z,48.75
2023-02-26T04:09:42.652Z,48.87
2023-02-26T04:12:11.325Z,48.71
2023-02-26T04:14:39.579Z,48.63
2023-02-26T04:17:08.133Z,48.73
2023-02-26T04:19:37.733Z,48.73
2023-02-26T04:22:06.113Z,48.53
2023-02-26T04:24:34.397Z,48.71
2023-02-26T04:27:02.773Z,48.68
2023-02-26T04:29:31.100Z,48.59
2023-02-26T04:31:59.452Z,48.72
2023-02-26T04:34:27.921Z,48.70
2023-02-26T04:36:57.517Z,48.61
2023-02-26T04:39:25.749Z,48.71
2023-02-26T04:41:54.012Z,48.75
2023-02-26T04:44:22.324Z,48.57
2023-02-26T04:46:50.632Z,48.64
2023-02-26T04:49:18.989Z,48.87
2023-02-26T04:51:47.322Z,48.56
2023-02-26T04:54:17.553Z,48.71
2023-02-26T04:56:45.887Z,48.55
2023-02-26T04:59:14.124Z,48.69
2023-02-26T05:01:42.478Z,48.62
2023-02-26T05:04:10.932Z,48.80
2023-02-26T05:06:39.256Z,48.85
2023-02-26T05:09:07.631Z,48.84
2023-02-26T05:11:37.265Z,49.01
2023-02-26T05:14:05.558Z,48.96
2023-02-26T05:16:33.956Z,49.05
2023-02-26T05:19:02.255Z,48.94
2023-02-26T05:21:30.483Z,49.01
2023-02-26T05:23:58.861Z,48.89
2023-02-26T05:26:27.480Z,48.99
2023-02-26T05:28:57.322Z,49.30
2023-02-26T05:31:26.856Z,49.19
2023-02-26T05:33:55.271Z,49.42
2023-02-26T05:36:23.855Z,49.22
2023-02-26T05:38:53.104Z,49.22
2023-02-26T05:41:21.485Z,49.29
2023-02-26T05:43:50.190Z,49.71
2023-02-26T05:46:19.879Z,49.58
2023-02-26T05:48:48.143Z,49.67
2023-02-26T05:51:16.408Z,49.80
2023-02-26T05:53:44.637Z,49.71
2023-02-26T05:56:13.247Z,49.72
2023-02-26T05:58:41.500Z,49.59
2023-02-26T06:01:09.955Z,49.73
2023-02-26T06:03:44.105Z,49.62
2023-02-26T06:06:12.802Z,49.47
2023-02-26T06:08:41.469Z,49.70
2023-02-26T06:11:09.792Z,49.85
2023-02-26T06:13:38.040Z,49.94
2023-02-26T06:16:06.967Z,49.92
2023-02-26T06:18:35.359Z,49.94
2023-02-26T06:21:05.747Z,49.83
2023-02-26T06:23:34.021Z,49.91
2023-02-26T06:26:02.279Z,50.08
2023-02-26T06:28:30.566Z,50.03
2023-02-26T06:30:58.961Z,49.94
2023-02-26T06:33:27.515Z,49.92
2023-02-26T06:35:56.085Z,50.05
2023-02-26T06:38:25.705Z,49.91
2023-02-26T06:40:53.955Z,49.94
2023-02-26T06:43:22.272Z,49.95
2023-02-26T06:45:50.508Z,50.04
2023-02-26T06:48:18.900Z,49.95
2023-02-26T06:50:47.133Z,50.08
2023-02-26T06:53:15.384Z,49.88
2023-02-26T06:55:48.521Z,50.05
2023-02-26T06:58:16.814Z,49.81
2023-02-26T07:00:45.431Z,50.09
2023-02-26T07:03:16.553Z,50.05
2023-02-26T07:05:45.967Z,49.84
2023-02-26T07:08:15.189Z,49.85
2023-02-26T07:10:46.189Z,50.35
2023-02-26T07:13:15.899Z,50.00
2023-02-26T07:15:46.209Z,50.03
2023-02-26T07:18:14.601Z,50.22
2023-02-26T07:20:45.086Z,50.37
2023-02-26T07:23:13.408Z,50.47
2023-02-26T07:25:41.756Z,50.66
2023-02-26T07:28:10.016Z,50.31
2023-02-26T07:30:42.229Z,50.57
2023-02-26T07:33:13.243Z,50.52
2023-02-26T07:35:42.281Z,50.76
2023-02-26T07:38:10.516Z,50.16
2023-02-26T07:40:38.796Z,50.35
2023-02-26T07:43:07.068Z,49.96
2023-02-26T07:45:35.316Z,49.83
2023-02-26T07:48:05.150Z,49.83
2023-02-26T07:50:33.685Z,49.90
2023-02-26T07:53:01.958Z,49.78
2023-02-26T07:55:30.335Z,49.72
2023-02-26T07:57:58.580Z,49.85
2023-02-26T08:00:27.040Z,49.93
2023-02-26T08:02:55.322Z,49.27
2023-02-26T08:05:25.045Z,49.21
2023-02-26T08:07:53.280Z,49.23
2023-02-26T08:10:21.714Z,48.99
2023-02-26T08:12:49.978Z,48.71
2023-02-26T08:15:18.278Z,48.46
2023-02-26T08:17:46.539Z,48.13
2023-02-26T08:20:16.268Z,47.84
2023-02-26T08:22:45.912Z,47.75
2023-02-26T08:25:14.559Z,47.88
2023-02-26T08:27:43.014Z,48.13
2023-02-26T08:30:13.221Z,47.96
2023-02-26T08:32:42.589Z,48.18
2023-02-26T08:35:11.663Z,47.85
2023-02-26T08:37:40.226Z,48.09
2023-02-26T08:40:15.110Z,48.21
2023-02-26T08:42:43.542Z,48.76
2023-02-26T08:45:12.539Z,48.44
2023-02-26T08:47:55.802Z,48.80
2023-02-26T08:50:25.084Z,49.60
2023-02-26T08:52:53.445Z,49.69
2023-02-26T08:55:23.859Z,50.31
2023-02-26T08:57:52.221Z,50.59
2023-02-26T09:00:21.532Z,50.51
2023-02-26T09:02:49.983Z,50.38
2023-02-26T09:05:19.365Z,50.23
2023-02-26T09:07:47.711Z,49.67
2023-02-26T09:10:17.002Z,48.51
2023-02-26T09:12:46.776Z,47.70
2023-02-26T09:15:15.584Z,47.31
2023-02-26T09:17:44.255Z,46.71
2023-02-26T09:20:14.072Z,46.10
2023-02-26T09:22:42.555Z,45.85
2023-02-26T09:25:12.188Z,45.92
2023-02-26T09:27:40.448Z,45.85
2023-02-26T09:30:12.545Z,45.79
2023-02-26T09:32:40.892Z,46.16
2023-02-26T09:35:10.030Z,46.83
2023-02-26T09:37:38.515Z,47.26
2023-02-26T09:40:09.350Z,47.01
2023-02-26T09:42:58.460Z,46.62
2023-02-26T09:45:33.171Z,46.42
2023-02-26T09:48:06.737Z,45.90
2023-02-26T09:50:43.366Z,44.86
2023-02-26T09:53:19.106Z,44.36
2023-02-26T09:55:50.908Z,43.43
2023-02-26T09:58:25.935Z,43.24
2023-02-26T10:01:06.909Z,43.54
2023-02-26T10:03:50.141Z,43.64
2023-02-26T10:06:25.370Z,43.94
2023-02-26T10:09:11.552Z,43.89
2023-02-26T10:11:50.346Z,43.42
2023-02-26T10:14:24.495Z,42.49
2023-02-26T10:17:00.407Z,42.79
2023-02-26T10:19:35.553Z,42.90
2023-02-26T10:22:18.758Z,43.73
2023-02-26T10:24:53.763Z,43.27
2023-02-26T10:27:37.628Z,43.41
2023-02-26T10:30:11.585Z,42.74
2023-02-26T10:32:52.428Z,42.58
2023-02-26T10:35:25.944Z,42.49
2023-02-26T10:37:59.985Z,41.90
2023-02-26T10:40:34.421Z,41.78
2023-02-26T10:43:18.102Z,39.00
2023-02-26T10:46:11.868Z,41.56
2023-02-26T10:48:56.571Z,38.93
2023-02-26T10:51:33.480Z,39.84
2023-02-26T10:54:13.849Z,39.34
2023-02-26T10:56:42.091Z,39.46
2023-02-26T10:59:10.387Z,39.15
2023-02-26T11:01:38.935Z,38.73
2023-02-26T11:04:12.738Z,38.02
2023-02-26T11:06:47.692Z,37.94
2023-02-26T11:09:27.342Z,37.75
2023-02-26T11:11:58.944Z,37.33
2023-02-26T11:14:29.927Z,36.65
2023-02-26T11:17:02.754Z,36.95
2023-02-26T11:19:37.375Z,37.30
2023-02-26T11:22:09.743Z,37.55
2023-02-26T11:24:41.562Z,38.02
2023-02-26T11:27:15.628Z,38.57
2023-02-26T11:29:49.487Z,38.60
2023-02-26T11:32:21.373Z,39.28
2023-02-26T11:34:53.202Z,39.29
2023-02-26T11:37:24.132Z,39.46
2023-02-26T11:39:59.074Z,39.33
2023-02-26T11:42:28.508Z,39.49
2023-02-26T11:44:58.949Z,39.74
2023-02-26T11:47:31.264Z,40.10
2023-02-26T11:50:12.096Z,40.55
2023-02-26T11:52:44.765Z,40.36
2023-02-26T11:55:22.878Z,40.01
2023-02-26T11:57:55.105Z,39.69
2023-02-26T12:00:32.501Z,39.65
2023-02-26T12:03:08.265Z,39.64
2023-02-26T12:05:38.745Z,39.86
2023-02-26T12:08:19.073Z,39.73
2023-02-26T12:11:03.422Z,39.77
2023-02-26T12:13:39.621Z,38.63
2023-02-26T12:16:17.985Z,37.70
2023-02-26T12:19:01.202Z,37.92
2023-02-26T12:21:56.330Z,38.06
2023-02-26T12:24:51.343Z,37.85
2023-02-26T12:27:30.302Z,36.45
2023-02-26T12:30:23.001Z,36.87
2023-02-26T12:33:09.991Z,36.95
2023-02-26T12:35:49.078Z,36.29
2023-02-26T12:38:27.422Z,36.35
2023-02-26T12:41:30.017Z,36.15
2023-02-26T12:43:59.538Z,36.86
2023-02-26T12:46:48.537Z,37.06
2023-02-26T12:49:40.488Z,36.72
2023-02-26T12:52:42.695Z,36.31
2023-02-26T12:55:24.352Z,36.19
2023-02-26T12:58:21.103Z,36.63
2023-02-26T13:01:09.011Z,36.32
2023-02-26T13:04:08.905Z,35.75
2023-02-26T13:07:29.174Z,35.45
2023-02-26T13:10:05.284Z,35.16
2023-02-26T13:12:47.252Z,35.18
2023-02-26T13:15:42.732Z,35.65
2023-02-26T13:18:18.925Z,36.49
2023-02-26T13:20:56.660Z,36.62
2023-02-26T13:23:31.396Z,36.43
2023-02-26T13:26:03.587Z,36.15
2023-02-26T13:28:42.283Z,35.77
2023-02-26T13:31:14.908Z,35.77
2023-02-26T13:33:44.858Z,35.53
2023-02-26T13:36:13.756Z,35.83
2023-02-26T13:39:04.950Z,36.08
2023-02-26T13:41:46.271Z,36.50
2023-02-26T13:44:31.548Z,36.25
2023-02-26T13:47:33.545Z,36.79
2023-02-26T13:50:21.292Z,36.25
2023-02-26T13:52:55.159Z,35.84
2023-02-26T13:55:45.237Z,36.23
2023-02-26T13:58:36.323Z,36.10
2023-02-26T14:01:15.865Z,36.16
2023-02-26T14:03:50.523Z,36.22
2023-02-26T14:06:43.602Z,35.88
2023-02-26T14:09:46.913Z,35.46
2023-02-26T14:12:35.308Z,35.22
2023-02-26T14:15:41.653Z,35.06
2023-02-26T14:18:36.822Z,35.02
2023-02-26T14:21:40.986Z,34.84
2023-02-26T14:24:18.708Z,35.36
2023-02-26T14:26:50.074Z,34.96
2023-02-26T14:29:26.909Z,35.06
2023-02-26T14:32:13.521Z,34.92
2023-02-26T14:34:51.995Z,34.54
2023-02-26T14:37:24.252Z,34.91
2023-02-26T14:39:58.988Z,35.15
2023-02-26T14:42:35.839Z,34.79
2023-02-26T14:45:27.244Z,34.67
2023-02-26T14:47:58.114Z,34.56
2023-02-26T14:50:34.698Z,34.71
2023-02-26T14:53:47.490Z,34.75
2023-02-26T14:56:23.150Z,34.89
2023-02-26T14:59:07.281Z,34.78
2023-02-26T15:01:49.689Z,34.47
2023-02-26T15:04:54.015Z,34.96
2023-02-26T15:07:49.272Z,34.51
2023-02-26T15:10:34.315Z,34.76
2023-02-26T15:13:27.151Z,33.87
2023-02-26T15:16:00.831Z,34.32
2023-02-26T15:18:57.828Z,34.36
2023-02-26T15:21:40.662Z,34.88
2023-02-26T15:24:14.482Z,35.50
2023-02-26T15:26:48.468Z,35.92
2023-02-26T15:29:17.896Z,36.09
2023-02-26T15:31:54.361Z,36.35
2023-02-26T15:34:23.576Z,36.86
2023-02-26T15:36:54.246Z,37.10
2023-02-26T15:39:25.779Z,37.22
2023-02-26T15:41:56.574Z,37.40
2023-02-26T15:44:28.790Z,37.56
2023-02-26T15:47:01.286Z,37.56
2023-02-26T15:49:34.885Z,37.91
2023-02-26T15:52:06.444Z,38.08
2023-02-26T15:54:42.607Z,38.22
2023-02-26T15:57:12.862Z,38.25
2023-02-26T15:59:45.760Z,38.04
2023-02-26T16:02:15.562Z,38.05
2023-02-26T16:04:44.804Z,38.31
2023-02-26T16:07:14.090Z,38.30
2023-02-26T16:09:48.410Z,38.37
2023-02-26T16:12:21.674Z,38.43
2023-02-26T16:14:57.124Z,38.47
2023-02-26T16:17:28.859Z,38.39
2023-02-26T16:20:00.009Z,38.53
2023-02-26T16:22:34.013Z,38.75
2023-02-26T16:25:09.201Z,38.88
2023-02-26T16:27:37.851Z,38.80
2023-02-26T16:30:07.913Z,38.64
2023-02-26T16:32:37.241Z,38.79
2023-02-26T16:35:14.105Z,38.80
2023-02-26T16:37:49.904Z,38.82
2023-02-26T16:40:26.726Z,38.95
2023-02-26T16:43:01.951Z,38.64
2023-02-26T16:45:51.777Z,38.96
2023-02-26T16:48:26.029Z,38.61
2023-02-26T16:51:01.230Z,38.98
2023-02-26T16:53:36.644Z,39.33
2023-02-26T16:56:07.600Z,39.65
2023-02-26T16:58:36.477Z,39.83
2023-02-26T17:01:10.567Z,40.03
2023-02-26T17:03:40.626Z,40.15
2023-02-26T17:06:14.791Z,40.10
2023-02-26T17:08:50.404Z,40.59
2023-02-26T17:11:27.215Z,40.50
2023-02-26T17:14:19.090Z,40.52
2023-02-26T17:16:48.069Z,41.03
2023-02-26T17:19:17.019Z,40.81
2023-02-26T17:21:50.261Z,41.26
2023-02-26T17:24:22.328Z,41.11
2023-02-26T17:26:52.761Z,40.95
2023-02-26T17:29:24.115Z,41.25
2023-02-26T17:31:53.054Z,41.18
2023-02-26T17:34:23.035Z,41.38
2023-02-26T17:36:51.781Z,41.45
2023-02-26T17:39:20.064Z,41.61
2023-02-26T17:41:49.097Z,41.89
2023-02-26T17:44:19.770Z,41.83
2023-02-26T17:46:48.093Z,41.76
2023-02-26T17:49:16.587Z,41.87
2023-02-26T17:51:44.907Z,41.97
2023-02-26T17:54:13.185Z,42.12
2023-02-26T17:56:42.225Z,41.97
2023-02-26T17:59:13.044Z,42.10
2023-02-26T18:01:43.072Z,41.95
2023-02-26T18:04:13.311Z,42.45
2023-02-26T18:06:41.664Z,42.29
2023-02-26T18:09:12.928Z,42.16
2023-02-26T18:11:43.006Z,42.38
2023-02-26T18:14:12.289Z,42.18
2023-02-26T18:16:45.320Z,42.78
2023-02-26T18:19:16.148Z,42.75
2023-02-26T18:21:44.439Z,42.68
2023-02-26T18:24:12.681Z,42.33
2023-02-26T18:26:41.059Z,42.74
2023-02-26T18:29:09.315Z,42.48
2023-02-26T18:31:38.128Z,42.70
2023-02-26T18:34:09.268Z,42.96
2023-02-26T18:36:39.786Z,42.86
2023-02-26T18:39:12.465Z,42.97
2023-02-26T18:41:40.752Z,42.68
2023-02-26T18:44:09.101Z,43.12
2023-02-26T18:46:40.177Z,42.88
2023-02-26T18:49:19.758Z,42.93
2023-02-26T18:51:48.211Z,43.14
2023-02-26T18:54:16.529Z,43.04
2023-02-26T18:56:45.805Z,43.01
2023-02-26T18:59:14.397Z,42.91
2023-02-26T19:01:43.104Z,43.19
2023-02-26T19:04:12.818Z,43.28
2023-02-26T19:06:41.078Z,43.14
2023-02-26T19:09:09.677Z,43.32
2023-02-26T19:11:38.405Z,43.61
2023-02-26T19:14:06.950Z,43.53
2023-02-26T19:16:39.418Z,43.65
2023-02-26T19:19:11.773Z,43.44
2023-02-26T19:21:42.283Z,43.48
2023-02-26T19:24:13.028Z,43.34
2023-02-26T19:26:42.459Z,43.53
2023-02-26T19:29:14.938Z,43.77
2023-02-26T19:31:43.725Z,43.63
2023-02-26T19:34:12.263Z,43.60
2023-02-26T19:36:48.150Z,43.31
2023-02-26T19:39:19.439Z,43.57
2023-02-26T19:41:50.436Z,43.47
2023-02-26T19:44:20.272Z,43.44
2023-02-26T19:46:49.187Z,43.42
2023-02-26T19:49:18.791Z,43.72
2023-02-26T19:51:48.449Z,43.49
2023-02-26T19:54:16.869Z,43.72
2023-02-26T19:56:45.403Z,43.37
2023-02-26T19:59:14.083Z,43.85
2023-02-26T20:01:43.813Z,43.54
2023-02-26T20:04:12.295Z,43.46
2023-02-26T20:06:40.677Z,43.72
2023-02-26T20:09:12.119Z,43.30
2023-02-26T20:11:40.627Z,43.34
2023-02-26T20:14:08.959Z,43.36
2023-02-26T20:16:37.252Z,43.13
2023-02-26T20:19:05.630Z,43.31
2023-02-26T20:21:34.040Z,43.30
2023-02-26T20:24:03.249Z,43.44
2023-02-26T20:26:33.691Z,43.16
2023-02-26T20:29:02.020Z,43.29
2023-02-26T20:31:31.591Z,43.41
2023-02-26T20:34:00.103Z,43.00
2023-02-26T20:36:28.606Z,43.08
2023-02-26T20:38:56.932Z,43.24
2023-02-26T20:41:25.576Z,43.09
2023-02-26T20:43:57.630Z,43.01
2023-02-26T20:46:27.136Z,43.00
2023-02-26T20:48:55.540Z,42.96
2023-02-26T20:51:24.005Z,43.00
2023-02-26T20:53:52.610Z,43.36
2023-02-26T20:56:20.923Z,43.56
2023-02-26T20:58:50.114Z,43.13
2023-02-26T21:01:19.811Z,43.05
2023-02-26T21:03:48.129Z,43.22
2023-02-26T21:06:16.600Z,42.98
2023-02-26T21:08:45.212Z,42.94
2023-02-26T21:11:13.769Z,42.82
2023-02-26T21:13:42.061Z,43.08
2023-02-26T21:16:10.899Z,43.20
2023-02-26T21:18:40.609Z,43.22
2023-02-26T21:21:09.052Z,43.08
2023-02-26T21:23:37.462Z,42.84
2023-02-26T21:26:05.908Z,42.87
2023-02-26T21:28:34.241Z,42.79
2023-02-26T21:31:02.667Z,43.00
2023-02-26T21:33:30.969Z,43.19
2023-02-26T21:36:00.646Z,42.99
2023-02-26T21:38:29.167Z,42.80
2023-02-26T21:40:57.530Z,42.78
2023-02-26T21:43:25.927Z,42.93
2023-02-26T21:45:54.322Z,42.94
2023-02-26T21:48:22.661Z,42.88
2023-02-26T21:50:52.119Z,43.11
2023-02-26T21:53:21.903Z,43.05
2023-02-26T21:55:50.288Z,43.08
2023-02-26T21:58:18.664Z,43.37
2023-02-26T22:00:47.170Z,43.46
2023-02-26T22:03:15.518Z,43.52
2023-02-26T22:05:43.879Z,43.10
2023-02-26T22:08:12.216Z,43.42
2023-02-26T22:10:41.821Z,43.06
2023-02-26T22:13:10.082Z,43.28
2023-02-26T22:15:38.692Z,43.32
2023-02-26T22:18:07.146Z,43.26
2023-02-26T22:20:35.361Z,43.38
2023-02-26T22:23:04.671Z,43.13
2023-02-26T22:25:33.230Z,43.11
2023-02-26T22:28:02.859Z,43.48
2023-02-26T22:30:31.121Z,43.03
2023-02-26T22:32:59.386Z,43.09
2023-02-26T22:35:27.741Z,42.99
2023-02-26T22:37:56.015Z,43.10
2023-02-26T22:40:24.912Z,43.15
2023-02-26T22:42:53.184Z,43.28
2023-02-26T22:45:23.003Z,43.26
2023-02-26T22:47:51.471Z,43.20
2023-02-26T22:50:20.227Z,43.05
2023-02-26T22:52:49.335Z,43.01
2023-02-26T22:55:17.819Z,43.33
2023-02-26T22:57:46.074Z,43.27
2023-02-26T23:00:18.683Z,43.48
2023-02-26T23:02:50.133Z,43.47
2023-02-26T23:05:20.600Z,43.09
2023-02-26T23:07:49.867Z,43.47
2023-02-26T23:10:21.468Z,43.41
2023-02-26T23:12:50.253Z,43.61
2023-02-26T23:15:18.609Z,43.46
2023-02-26T23:17:48.208Z,43.74
2023-02-26T23:20:17.972Z,43.65
2023-02-26T23:22:46.205Z,43.32
2023-02-26T23:25:14.491Z,43.63
2023-02-26T23:27:43.134Z,43.43
2023-02-26T23:30:13.425Z,43.30
2023-02-26T23:32:41.803Z,43.37
2023-02-26T23:35:12.067Z,43.43
2023-02-26T23:37:40.498Z,43.48
2023-02-26T23:40:14.176Z,43.53
2023-02-26T23:42:42.704Z,43.49
2023-02-26T23:45:12.622Z,43.67
2023-02-26T23:47:41.179Z,43.39
2023-02-26T23:50:12.618Z,43.71
2023-02-26T23:52:40.956Z,43.41
2023-02-26T23:55:11.049Z,43.64
2023-02-26T23:57:39.721Z,43.36
